Time;durP1;ratioP1;P1;durP2;ratioP2;P2;SDS_P1;SDS_P2;PMS_P1;PMS_P2;Temp;Humidity;BMP_temperature;BMP_pressure;BME280_temperature;BME280_humidity;BME280_pressure;Samples;Min_cycle;Max_cycle;Signal;HPM_P1;HPM_P2
2022/01/12 00:00:32;;;;;;;9.90;4.40;;;;;-2.20;98470.80;;;;111596;1242;41146;-61
2022/01/12 00:03:11;;;;;;;11.90;5.80;;;;;-2.20;98475.80;;;;111584;1241;41493;-67
2022/01/12 00:05:42;;;;;;;11.50;5.10;;;;;-2.20;98475.60;;;;111813;1241;41918;-74
2022/01/12 00:08:12;;;;;;;13.60;5.80;;;;;-2.24;98477.80;;;;111816;1241;41387;-73
2022/01/12 00:10:43;;;;;;;11.80;5.20;;;;;-2.30;98477.40;;;;111833;1241;41819;-72
2022/01/12 00:13:12;;;;;;;;;;;;;-2.30;98479.40;;;;111612;1242;41181;-71
2022/01/12 00:15:41;;;;;;;12.60;6.00;;;;;-2.34;98485.40;;;;111817;1241;41800;-73
2022/01/12 00:18:11;;;;;;;14.20;6.20;;;;;-2.38;98487.60;;;;111843;1241;42183;-68
2022/01/12 00:20:42;;;;;;;14.70;6.50;;;;;-2.40;98487.80;;;;111824;1241;41244;-69
2022/01/12 00:23:11;;;;;;;16.80;6.60;;;;;-2.40;98490.40;;;;111763;1242;41204;-73
2022/01/12 00:26:02;;;;;;;14.80;7.00;;;;;-2.50;98489.00;;;;111797;1243;41192;-69
2022/01/12 00:34:15;;;;;;;16.00;7.10;;;;;-2.60;98511.00;;;;111403;1243;41366;-69
2022/01/12 00:36:44;;;;;;;13.80;6.10;;;;;-2.60;98509.60;;;;111524;1244;41256;-65
2022/01/12 00:39:14;;;;;;;12.30;6.40;;;;;-2.52;98507.20;;;;111433;1244;41591;-73
2022/01/12 00:41:44;;;;;;;14.00;6.40;;;;;-2.50;98508.80;;;;111701;1243;41261;-71
2022/01/12 00:44:22;;;;;;;15.30;6.40;;;;;-2.50;98502.40;;;;111556;1243;41168;-74
2022/01/12 00:46:53;;;;;;;15.40;6.80;;;;;-2.50;98512.20;;;;111471;1243;41148;-68
2022/01/12 00:49:23;;;;;;;15.70;7.00;;;;;-2.50;98510.40;;;;111605;1244;42436;-71
2022/01/12 00:51:54;;;;;;;15.80;6.90;;;;;-2.50;98509.60;;;;111505;1243;41142;-76
2022/01/12 00:54:25;;;;;;;13.00;6.00;;;;;-2.50;98503.80;;;;111784;1243;41129;-72
2022/01/12 00:56:54;;;;;;;;;;;;;-2.40;98506.40;;;;111809;1242;42230;-69
2022/01/12 00:59:24;;;;;;;13.50;6.20;;;;;-2.40;98512.40;;;;111848;1243;41145;-71
2022/01/12 01:01:57;;;;;;;13.90;6.60;;;;;-2.40;98512.60;;;;111465;1241;41133;-72
2022/01/12 01:04:27;;;;;;;13.80;6.30;;;;;-2.42;98514.80;;;;111654;1243;41356;-70
2022/01/12 01:06:56;;;;;;;13.30;5.60;;;;;-2.50;98511.60;;;;111515;1244;41141;-65
2022/01/12 01:09:26;;;;;;;12.00;5.30;;;;;-2.50;98503.40;;;;111738;1241;41161;-67
2022/01/12 01:11:57;;;;;;;15.00;6.40;;;;;-2.50;98505.60;;;;111558;1244;41120;-74
2022/01/12 01:14:44;;;;;;;13.40;5.90;;;;;-2.50;98507.80;;;;111780;1243;41167;-74
2022/01/12 01:25:28;;;;;;;11.40;5.10;;;;;-2.50;98508.00;;;;111842;1241;41817;-73
2022/01/12 01:25:52;;;;;;;11.70;5.10;;;;;-2.50;98515.40;;;;111832;1243;41250;-65
2022/01/12 01:28:23;;;;;;;;;;;;;-2.50;98512.80;;;;111638;1244;41533;-73
2022/01/12 01:30:55;;;;;;;11.70;5.30;;;;;-2.50;98516.20;;;;111582;1243;41382;-71
2022/01/12 01:33:27;;;;;;;13.20;5.50;;;;;-2.40;98520.40;;;;111774;1243;41143;-72
2022/01/12 01:35:57;;;;;;;13.70;6.10;;;;;-2.40;98526.20;;;;111548;1241;41437;-74
2022/01/12 01:38:27;;;;;;;;;;;;;-2.40;98523.00;;;;111604;1243;41261;-73
2022/01/12 01:40:57;;;;;;;15.00;6.20;;;;;-2.40;98519.60;;;;111469;1243;41135;-71
2022/01/12 01:44:08;;;;;;;11.30;5.20;;;;;-2.48;98522.00;;;;111759;1242;41233;-73
2022/01/12 01:54:42;;;;;;;12.20;5.60;;;;;-2.70;98522.80;;;;111587;1243;41166;-69
2022/01/12 01:57:13;;;;;;;12.50;5.30;;;;;-2.80;98529.80;;;;111562;1242;41139;-70
2022/01/12 01:59:48;;;;;;;10.80;4.80;;;;;-2.80;98533.80;;;;111557;1244;41937;-71
2022/01/12 02:02:17;;;;;;;11.00;4.90;;;;;-2.90;98536.00;;;;111449;1241;41143;-61
2022/01/12 02:04:47;;;;;;;11.60;5.30;;;;;-2.90;98533.00;;;;111593;1244;41120;-68
2022/01/12 02:07:17;;;;;;;13.60;5.60;;;;;-3.00;98534.60;;;;111774;1241;41602;-60
2022/01/12 02:09:52;;;;;;;13.00;5.50;;;;;-3.00;98541.40;;;;111516;1244;41155;-70
2022/01/12 02:12:42;;;;;;;;;;;;;-3.06;98542.60;;;;111606;1243;42121;-64
2022/01/12 02:15:23;;;;;;;12.30;5.40;;;;;-3.10;98548.60;;;;111546;1243;41136;-67
2022/01/12 02:40:46;;;;;;;10.90;4.80;;;;;-3.50;98556.60;;;;111482;1241;41174;-60
2022/01/12 02:54:30;;;;;;;10.80;5.20;;;;;-3.80;98575.00;;;;111835;1241;41165;-74
2022/01/12 02:57:00;;;;;;;11.80;5.80;;;;;-3.80;98572.80;;;;111750;1241;41597;-70
2022/01/12 02:59:30;;;;;;;14.30;5.60;;;;;-3.86;98574.00;;;;111411;1241;41148;-68
2022/01/12 03:02:25;;;;;;;12.40;5.30;;;;;-3.90;98577.20;;;;111623;1242;41259;-69
2022/01/12 03:07:36;;;;;;;12.70;5.00;;;;;-4.00;98575.20;;;;111615;1242;41149;-75
2022/01/12 03:10:08;;;;;;;12.50;5.40;;;;;-4.00;98574.60;;;;111775;1243;41137;-71
2022/01/12 03:12:40;;;;;;;13.30;5.80;;;;;-4.08;98584.60;;;;111522;1243;41136;-72
2022/01/12 03:15:10;;;;;;;11.70;5.50;;;;;-4.10;98575.60;;;;111707;1241;41833;-73
2022/01/12 03:17:40;;;;;;;13.30;5.60;;;;;-4.10;98583.80;;;;111458;1243;41157;-73
2022/01/12 03:20:11;;;;;;;11.40;5.50;;;;;-4.18;98583.00;;;;111569;1242;41139;-74
2022/01/12 03:22:40;;;;;;;14.20;5.70;;;;;-4.20;98579.40;;;;111925;1241;41170;-67
2022/01/12 03:25:10;;;;;;;12.60;5.50;;;;;-4.20;98586.40;;;;111484;1241;41664;-69
2022/01/12 03:27:40;;;;;;;10.50;5.00;;;;;-4.20;98586.40;;;;111483;1241;41607;-73
2022/01/12 03:30:11;;;;;;;12.10;4.90;;;;;-4.24;98583.00;;;;111515;1244;41241;-74
2022/01/12 03:32:49;;;;;;;12.40;5.80;;;;;-4.30;98579.80;;;;111751;1241;41248;-73
2022/01/12 03:35:46;;;;;;;11.40;4.80;;;;;-4.30;98578.60;;;;111733;1241;42545;-75
2022/01/12 03:38:20;;;;;;;10.00;5.00;;;;;-4.40;98580.60;;;;111685;1244;42169;-73
2022/01/12 03:40:51;;;;;;;11.20;5.50;;;;;-4.40;98588.00;;;;111766;1242;41143;-75
2022/01/12 03:43:21;;;;;;;;;;;;;-4.48;98582.40;;;;111591;1242;43003;-75
2022/01/12 03:45:52;;;;;;;11.40;5.00;;;;;-4.50;98579.00;;;;111739;1241;41142;-71
2022/01/12 03:48:21;;;;;;;15.20;6.20;;;;;-4.58;98586.60;;;;111879;1241;41128;-76
2022/01/12 03:50:54;;;;;;;17.50;8.00;;;;;-4.60;98585.20;;;;111467;1241;41820;-74
2022/01/12 03:53:24;;;;;;;17.70;7.70;;;;;-4.60;98583.20;;;;111508;1244;41175;-74
2022/01/12 03:55:54;;;;;;;18.90;9.10;;;;;-4.66;98584.40;;;;111811;1241;41713;-74
2022/01/12 03:58:24;;;;;;;17.80;7.60;;;;;-4.70;98586.80;;;;111446;1244;41506;-71
2022/01/12 04:00:53;;;;;;;14.50;6.40;;;;;-4.70;98591.20;;;;111467;1241;41166;-71
2022/01/12 04:03:25;;;;;;;13.00;6.10;;;;;-4.70;98599.40;;;;111554;1244;41141;-75
2022/01/12 04:08:25;;;;;;;11.60;5.40;;;;;-4.80;98597.80;;;;111588;1241;41122;-68
2022/01/12 04:10:58;;;;;;;12.10;5.80;;;;;-4.80;98598.40;;;;111685;1241;41410;-65
2022/01/12 04:13:29;;;;;;;12.30;5.60;;;;;-4.82;98598.80;;;;111741;1243;41526;-69
2022/01/12 04:16:05;;;;;;;;;;;;;-4.90;98602.00;;;;111635;1242;41132;-65
2022/01/12 04:18:35;;;;;;;13.30;6.20;;;;;-4.90;98606.80;;;;111500;1244;41272;-61
2022/01/12 04:21:08;;;;;;;13.80;6.00;;;;;-4.90;98611.60;;;;111435;1245;41251;-71
2022/01/12 04:23:38;;;;;;;11.60;5.30;;;;;-4.92;98613.60;;;;111708;1242;41374;-72
2022/01/12 04:26:11;;;;;;;13.10;6.10;;;;;-5.00;98608.20;;;;111896;1241;41300;-72
2022/01/12 04:28:43;;;;;;;13.30;5.90;;;;;-5.00;98620.20;;;;111871;1241;41481;-63
2022/01/12 04:31:13;;;;;;;11.20;5.40;;;;;-5.00;98618.20;;;;111855;1242;41146;-73
2022/01/12 04:33:44;;;;;;;11.90;5.60;;;;;-5.00;98622.20;;;;111795;1241;41276;-69
2022/01/12 04:36:16;;;;;;;;;;;;;-5.00;98623.80;;;;111542;1243;42483;-74
2022/01/12 04:38:47;;;;;;;13.80;6.30;;;;;-5.00;98629.00;;;;111673;1241;42215;-67
2022/01/12 04:41:16;;;;;;;;;;;;;-5.00;98622.20;;;;111884;1242;41257;-66
2022/01/12 04:43:47;;;;;;;13.60;6.40;;;;;-5.00;98631.80;;;;111681;1242;41636;-70
2022/01/12 04:46:24;;;;;;;13.60;6.70;;;;;-5.00;98626.00;;;;111801;1242;41276;-71
2022/01/12 04:49:08;;;;;;;13.50;6.10;;;;;-4.94;98632.60;;;;111587;1242;41132;-71
2022/01/12 04:51:38;;;;;;;12.70;6.10;;;;;-4.90;98633.80;;;;111693;1241;41236;-73
2022/01/12 04:54:08;;;;;;;14.50;6.60;;;;;-4.90;98634.60;;;;111659;1242;41249;-73
2022/01/12 04:56:41;;;;;;;12.90;5.90;;;;;-4.80;98628.80;;;;111513;1243;41148;-73
2022/01/12 04:59:10;;;;;;;11.70;5.40;;;;;-4.80;98634.80;;;;111549;1244;41933;-73
2022/01/12 05:01:49;;;;;;;16.50;7.90;;;;;-4.72;98637.20;;;;111785;1242;41668;-71
2022/01/12 05:07:24;;;;;;;22.20;10.20;;;;;-4.60;98645.60;;;;111501;1244;42057;-72
2022/01/12 05:12:48;;;;;;;21.60;10.40;;;;;-4.60;98652.00;;;;111452;1244;41162;-71
2022/01/12 05:12:54;;;;;;;28.20;13.60;;;;;-4.50;98654.40;;;;111803;1241;41136;-71
2022/01/12 05:15:31;;;;;;;39.70;18.70;;;;;-4.50;98655.20;;;;111813;1243;41401;-64
2022/01/12 05:18:00;;;;;;;34.90;16.90;;;;;-4.44;98658.40;;;;111447;1244;41675;-72
2022/01/12 05:20:30;;;;;;;45.80;22.60;;;;;-4.40;98659.80;;;;111712;1243;41121;-73
2022/01/12 05:23:01;;;;;;;35.70;18.30;;;;;-4.40;98662.40;;;;111467;1243;41664;-73
2022/01/12 05:25:30;;;;;;;27.20;13.40;;;;;-4.40;98662.20;;;;111528;1244;41496;-74
2022/01/12 05:28:00;;;;;;;22.60;9.90;;;;;-4.40;98663.00;;;;111526;1244;41258;-70
2022/01/12 05:30:30;;;;;;;17.90;8.50;;;;;-4.40;98655.60;;;;111762;1241;41604;-71
2022/01/12 05:32:59;;;;;;;19.20;8.60;;;;;-4.40;98662.80;;;;111540;1244;41251;-71
2022/01/12 05:35:32;;;;;;;17.40;7.50;;;;;-4.40;98665.00;;;;111628;1243;42465;-71
2022/01/12 05:38:04;;;;;;;14.60;6.60;;;;;-4.32;98663.00;;;;111534;1244;41149;-69
2022/01/12 05:40:34;;;;;;;17.30;8.40;;;;;-4.30;98666.00;;;;111359;1243;41152;-74
2022/01/12 05:43:05;;;;;;;18.30;9.40;;;;;-4.30;98663.80;;;;111503;1244;42138;-70
2022/01/12 05:45:39;;;;;;;20.40;10.10;;;;;-4.30;98662.80;;;;111489;1244;41857;-75
2022/01/12 05:50:39;;;;;;;19.50;8.50;;;;;-4.30;98664.40;;;;111475;1243;41254;-74
2022/01/12 05:53:21;;;;;;;23.80;10.90;;;;;-4.30;98674.20;;;;111657;1244;41458;-74
2022/01/12 05:55:53;;;;;;;33.10;14.80;;;;;-4.30;98675.00;;;;111698;1243;41567;-75
2022/01/12 05:58:23;;;;;;;37.30;19.80;;;;;-4.30;98681.80;;;;111467;1241;41173;-60
2022/01/12 06:00:53;;;;;;;34.80;17.60;;;;;-4.30;98683.20;;;;111829;1241;42244;-63
2022/01/12 06:03:23;;;;;;;35.50;17.70;;;;;-4.30;98695.20;;;;111835;1241;42377;-66
2022/01/12 06:05:52;;;;;;;32.60;14.70;;;;;-4.38;98703.40;;;;111778;1241;41699;-61
2022/01/12 06:08:21;;;;;;;35.80;16.10;;;;;-4.36;98698.60;;;;111518;1244;43000;-70
2022/01/12 06:10:50;;;;;;;32.80;15.60;;;;;-4.34;98698.00;;;;111596;1244;41162;-60
2022/01/12 06:13:20;;;;;;;28.90;13.40;;;;;-4.32;98706.40;;;;111423;1244;42516;-61
2022/01/12 06:15:50;;;;;;;26.80;12.00;;;;;-4.30;98712.40;;;;111428;1244;42444;-70
2022/01/12 06:18:19;;;;;;;23.50;10.80;;;;;-4.30;98712.60;;;;111534;1242;41640;-60
2022/01/12 06:20:48;;;;;;;24.40;10.50;;;;;-4.30;98714.40;;;;111538;1242;41531;-64
2022/01/12 06:23:53;;;;;;;19.90;9.40;;;;;-4.20;98711.40;;;;111665;1244;41164;-61
2022/01/12 06:26:25;;;;;;;19.70;8.80;;;;;-4.20;98710.80;;;;111840;1243;41708;-63
2022/01/12 06:29:23;;;;;;;17.40;8.00;;;;;-4.10;98717.40;;;;111551;1241;40753;-61
2022/01/12 06:31:56;;;;;;;19.60;9.00;;;;;-4.10;98721.00;;;;111887;1241;42162;-69
2022/01/12 06:34:25;;;;;;;21.20;10.40;;;;;-4.00;98724.80;;;;111529;1241;41146;-64
2022/01/12 06:36:55;;;;;;;23.10;10.20;;;;;-4.00;98728.60;;;;111619;1244;41263;-64
2022/01/12 06:39:25;;;;;;;21.00;9.50;;;;;-3.92;98730.60;;;;111661;1241;41502;-64
2022/01/12 06:41:55;;;;;;;18.50;8.40;;;;;-3.84;98732.00;;;;111576;1242;41572;-63
2022/01/12 06:44:25;;;;;;;21.90;10.40;;;;;-3.80;98734.80;;;;111662;1244;41127;-66
2022/01/12 06:46:56;;;;;;;25.40;11.60;;;;;-3.70;98737.40;;;;111838;1241;41435;-68
2022/01/12 06:49:25;;;;;;;23.30;10.70;;;;;-3.60;98732.00;;;;111462;1241;41846;-62
2022/01/12 06:51:54;;;;;;;20.40;10.00;;;;;-3.50;98730.80;;;;111833;1244;41165;-67
2022/01/12 06:54:23;;;;;;;28.10;11.30;;;;;-3.40;98735.40;;;;111847;1241;41145;-62
2022/01/12 06:56:53;;;;;;;31.30;14.40;;;;;-3.40;98736.80;;;;111876;1241;41590;-64
2022/01/12 06:59:22;;;;;;;35.50;15.70;;;;;-3.34;98741.20;;;;111705;1242;41178;-62
2022/01/12 07:01:52;;;;;;;30.50;15.00;;;;;-3.30;98741.20;;;;111500;1244;41130;-59
2022/01/12 07:04:28;;;;;;;36.50;15.90;;;;;-3.24;98745.80;;;;111727;1243;42521;-62
2022/01/12 07:06:57;;;;;;;32.60;15.60;;;;;-3.20;98749.20;;;;111474;1244;41120;-63
2022/01/12 07:09:26;;;;;;;32.00;15.30;;;;;-3.10;98751.80;;;;111485;1244;41154;-63
2022/01/12 07:11:59;;;;;;;40.60;18.60;;;;;-3.00;98756.00;;;;111783;1242;41145;-69
2022/01/12 07:14:31;;;;;;;37.60;18.30;;;;;-2.92;98755.40;;;;111861;1241;41181;-62
2022/01/12 07:17:00;;;;;;;39.50;19.00;;;;;-2.90;98755.00;;;;111760;1243;41637;-63
2022/01/12 07:19:29;;;;;;;38.00;18.50;;;;;-2.80;98755.40;;;;111507;1244;42721;-65
2022/01/12 07:21:58;;;;;;;40.80;19.00;;;;;-2.52;98754.40;;;;111585;1244;41262;-73
2022/01/12 07:24:28;;;;;;;34.10;16.50;;;;;-2.30;98750.60;;;;111813;1241;41359;-68
2022/01/12 07:26:57;;;;;;;34.90;16.10;;;;;-2.10;98747.80;;;;111858;1241;41250;-60
2022/01/12 07:29:26;;;;;;;33.20;16.00;;;;;-2.00;98736.80;;;;111570;1244;41903;-68
2022/01/12 07:31:55;;;;;;;35.90;16.40;;;;;-1.80;98739.40;;;;111725;1242;41285;-63
2022/01/12 07:34:24;;;;;;;30.30;14.30;;;;;-1.48;98737.60;;;;111781;1244;41147;-69
2022/01/12 07:36:54;;;;;;;25.70;12.50;;;;;-1.06;98740.40;;;;111751;1241;41455;-69
2022/01/12 07:39:23;;;;;;;27.60;12.60;;;;;-0.64;98742.00;;;;111506;1244;41134;-67
2022/01/12 07:41:52;;;;;;;23.70;11.50;;;;;-0.22;98737.80;;;;111817;1241;41129;-62
2022/01/12 07:44:25;;;;;;;19.20;10.20;;;;;0.36;98733.80;;;;111780;1242;41182;-70
2022/01/12 07:46:54;;;;;;;23.10;11.00;;;;;0.96;98737.80;;;;111566;1244;41121;-72
2022/01/12 07:49:23;;;;;;;20.70;9.50;;;;;1.66;98738.60;;;;111818;1241;41313;-68
2022/01/12 07:51:52;;;;;;;18.10;8.50;;;;;2.60;98731.60;;;;111827;1241;41684;-69
2022/01/12 07:54:21;;;;;;;16.40;7.70;;;;;3.62;98727.20;;;;111715;1243;41929;-71
2022/01/12 07:56:50;;;;;;;15.40;7.30;;;;;4.48;98720.40;;;;111752;1241;41713;-73
2022/01/12 07:59:20;;;;;;;16.70;9.00;;;;;5.44;98712.20;;;;111713;1243;41407;-76
2022/01/12 08:01:49;;;;;;;16.60;8.20;;;;;6.52;98709.40;;;;111453;1244;41183;-68
2022/01/12 08:04:19;;;;;;;15.50;6.80;;;;;7.48;98711.80;;;;111634;1244;41627;-68
2022/01/12 08:06:50;;;;;;;18.90;8.60;;;;;8.32;98708.80;;;;111570;1244;41255;-61
2022/01/12 08:09:20;;;;;;;16.70;7.70;;;;;9.00;98699.40;;;;111775;1241;41146;-60
2022/01/12 08:11:49;;;;;;;14.30;7.00;;;;;9.40;98700.20;;;;111745;1244;41615;-68
2022/01/12 08:14:18;;;;;;;15.90;7.30;;;;;10.08;98701.40;;;;111741;1243;41166;-71
2022/01/12 08:16:47;;;;;;;13.50;6.30;;;;;10.80;98695.80;;;;111492;1244;41166;-62
2022/01/12 08:19:18;;;;;;;10.60;4.70;;;;;11.30;98693.80;;;;111725;1244;42414;-67
2022/01/12 08:21:48;;;;;;;11.40;4.80;;;;;11.80;98690.40;;;;111777;1243;41172;-74
2022/01/12 08:24:18;;;;;;;11.90;4.60;;;;;12.10;98690.20;;;;111722;1244;41359;-69
2022/01/12 08:27:06;;;;;;;10.00;3.90;;;;;12.30;98695.00;;;;111716;1243;41389;-64
2022/01/12 08:29:36;;;;;;;10.20;4.20;;;;;12.56;98690.80;;;;111455;1244;41260;-66
2022/01/12 08:32:05;;;;;;;9.40;3.90;;;;;12.80;98691.60;;;;111481;1244;41159;-71
2022/01/12 08:34:35;;;;;;;10.80;4.20;;;;;13.14;98688.20;;;;111684;1244;41127;-70
2022/01/12 08:37:04;;;;;;;10.40;4.20;;;;;13.30;98694.20;;;;111424;1244;41675;-67
2022/01/12 08:39:34;;;;;;;11.80;4.40;;;;;13.80;98695.40;;;;111834;1244;41247;-75
2022/01/12 08:42:03;;;;;;;9.40;4.00;;;;;14.10;98690.20;;;;111529;1244;41174;-73
2022/01/12 08:44:35;;;;;;;9.90;4.30;;;;;14.20;98697.20;;;;111697;1244;42259;-74
2022/01/12 08:47:05;;;;;;;9.00;3.80;;;;;14.50;98696.60;;;;111770;1244;41146;-72
2022/01/12 08:49:34;;;;;;;8.70;3.60;;;;;14.60;98696.40;;;;111379;1244;41137;-70
2022/01/12 08:52:04;;;;;;;9.30;4.20;;;;;14.70;98693.60;;;;111741;1243;41309;-68
2022/01/12 08:54:33;;;;;;;10.70;4.20;;;;;14.80;98695.80;;;;111757;1244;41719;-70
2022/01/12 08:57:03;;;;;;;9.70;3.90;;;;;14.80;98697.20;;;;111768;1243;41136;-70
2022/01/12 08:59:33;;;;;;;9.90;4.00;;;;;15.10;98700.20;;;;111784;1244;41252;-65
2022/01/12 09:02:03;;;;;;;;;;;;;15.10;98700.80;;;;111274;1242;41619;-70
2022/01/12 09:04:33;;;;;;;9.80;3.80;;;;;15.10;98699.20;;;;111754;1244;41963;-67
2022/01/12 09:07:03;;;;;;;8.10;3.80;;;;;15.36;98698.20;;;;111814;1242;41528;-69
2022/01/12 09:09:32;;;;;;;9.80;4.40;;;;;15.84;98699.80;;;;111834;1244;40819;-72
2022/01/12 09:12:03;;;;;;;8.10;3.90;;;;;15.42;98700.20;;;;111819;1243;42190;-73
2022/01/12 09:14:33;;;;;;;10.50;4.30;;;;;15.34;98696.60;;;;111818;1243;41377;-71
2022/01/12 09:17:02;;;;;;;8.70;3.40;;;;;15.22;98694.00;;;;111556;1244;41260;-73
2022/01/12 09:19:31;;;;;;;7.50;3.50;;;;;15.18;98695.40;;;;111803;1241;41144;-70
2022/01/12 09:22:00;;;;;;;9.00;3.60;;;;;15.82;98695.60;;;;111829;1241;41245;-68
2022/01/12 09:24:29;;;;;;;8.50;3.70;;;;;16.40;98701.60;;;;111780;1244;41875;-69
2022/01/12 09:27:03;;;;;;;9.40;3.60;;;;;16.54;98697.60;;;;111774;1244;41475;-68
2022/01/12 09:29:32;;;;;;;8.10;3.30;;;;;16.80;98700.00;;;;111748;1244;42527;-69
2022/01/12 09:32:01;;;;;;;8.20;3.30;;;;;17.56;98699.00;;;;111830;1244;41860;-68
2022/01/12 09:34:31;;;;;;;8.10;3.10;;;;;18.20;98693.20;;;;111835;1242;41149;-72
2022/01/12 09:37:01;;;;;;;7.90;3.40;;;;;18.78;98683.00;;;;111761;1241;41903;-74
2022/01/12 09:39:29;;;;;;;8.00;3.60;;;;;19.26;98681.20;;;;111746;1244;41427;-68
2022/01/12 09:41:59;;;;;;;9.80;4.20;;;;;19.14;98678.00;;;;111864;1242;41272;-69
2022/01/12 09:44:32;;;;;;;9.10;3.90;;;;;18.70;98679.20;;;;111810;1242;41258;-69
2022/01/12 09:47:04;;;;;;;8.80;3.70;;;;;18.10;98682.00;;;;111834;1241;41699;-72
2022/01/12 09:49:32;;;;;;;8.10;3.30;;;;;18.32;98681.80;;;;111798;1244;41339;-68
2022/01/12 09:52:03;;;;;;;7.30;3.10;;;;;18.78;98686.40;;;;111857;1242;41576;-69
2022/01/12 09:54:32;;;;;;;7.60;3.10;;;;;19.52;98679.20;;;;111612;1244;42374;-67
2022/01/12 09:57:02;;;;;;;7.20;2.80;;;;;20.02;98675.20;;;;111834;1244;41128;-71
2022/01/12 09:59:31;;;;;;;7.70;3.10;;;;;20.74;98675.20;;;;111841;1244;42387;-74
2022/01/12 10:02:00;;;;;;;8.50;3.40;;;;;21.52;98675.40;;;;111745;1244;41245;-70
2022/01/12 10:04:31;;;;;;;8.30;3.50;;;;;22.30;98679.20;;;;111776;1243;41143;-73
2022/01/12 10:07:02;;;;;;;8.20;3.70;;;;;22.94;98678.80;;;;111753;1243;41181;-76
2022/01/12 10:09:33;;;;;;;8.90;3.80;;;;;23.50;98677.60;;;;111689;1242;42025;-74
2022/01/12 10:12:05;;;;;;;8.90;3.10;;;;;23.80;98674.60;;;;111875;1242;41132;-70
2022/01/12 10:14:44;;;;;;;9.90;3.20;;;;;24.20;98674.00;;;;111774;1244;41115;-74
2022/01/12 10:17:14;;;;;;;7.50;3.20;;;;;24.60;98674.40;;;;111863;1244;42311;-70
2022/01/12 10:19:43;;;;;;;8.10;3.20;;;;;24.68;98671.40;;;;111877;1243;41149;-72
2022/01/12 10:22:16;;;;;;;9.60;3.70;;;;;24.34;98676.20;;;;111565;1244;41165;-63
2022/01/12 10:24:46;;;;;;;9.00;3.10;;;;;24.16;98674.40;;;;111821;1241;41957;-72
2022/01/12 10:27:20;;;;;;;7.80;3.30;;;;;24.30;98673.40;;;;111864;1241;42002;-70
2022/01/12 10:29:57;;;;;;;8.00;3.40;;;;;24.30;98672.20;;;;111848;1244;41587;-72
2022/01/12 10:32:25;;;;;;;7.50;3.00;;;;;24.50;98668.00;;;;111850;1243;41607;-73
2022/01/12 10:34:57;;;;;;;10.90;4.00;;;;;24.82;98669.20;;;;111887;1241;41176;-71
2022/01/12 10:37:26;;;;;;;7.70;3.00;;;;;25.00;98666.40;;;;111776;1242;41155;-62
2022/01/12 10:39:56;;;;;;;8.80;3.90;;;;;24.90;98667.40;;;;111705;1242;41139;-66
2022/01/12 10:42:28;;;;;;;7.70;3.20;;;;;24.90;98667.60;;;;111516;1244;41368;-66
2022/01/12 10:45:01;;;;;;;6.90;3.10;;;;;24.82;98664.60;;;;111473;1244;41350;-73
2022/01/12 10:47:34;;;;;;;9.00;3.50;;;;;24.18;98666.20;;;;111822;1243;41714;-70
2022/01/12 10:50:08;;;;;;;9.00;3.50;;;;;23.90;98669.60;;;;111784;1243;41251;-72
2022/01/12 10:52:47;;;;;;;7.30;3.00;;;;;24.00;98673.40;;;;111762;1244;41631;-69
2022/01/12 10:55:17;;;;;;;10.70;4.20;;;;;23.94;98671.40;;;;111757;1241;41311;-74
2022/01/12 10:57:47;;;;;;;9.70;3.60;;;;;23.20;98673.20;;;;111755;1244;41657;-71
2022/01/12 11:00:21;;;;;;;8.70;3.50;;;;;22.46;98667.80;;;;111752;1242;41134;-67
2022/01/12 11:02:55;;;;;;;8.70;3.70;;;;;22.12;98667.80;;;;111708;1241;42360;-67
2022/01/12 11:05:26;;;;;;;7.20;3.20;;;;;21.90;98668.20;;;;111483;1244;41259;-68
2022/01/12 11:07:55;;;;;;;9.90;3.50;;;;;22.50;98661.00;;;;111808;1241;42549;-63
2022/01/12 11:10:27;;;;;;;8.20;3.50;;;;;22.90;98662.60;;;;111827;1241;41600;-61
2022/01/12 11:12:56;;;;;;;8.80;3.60;;;;;23.58;98656.00;;;;111842;1242;41707;-60
2022/01/12 11:15:25;;;;;;;7.70;3.00;;;;;24.00;98657.00;;;;111786;1244;41147;-60
2022/01/12 11:17:55;;;;;;;8.90;3.60;;;;;24.50;98654.60;;;;111812;1243;42556;-63
2022/01/12 11:20:28;;;;;;;8.50;3.70;;;;;25.14;98652.60;;;;111764;1241;41792;-61
2022/01/12 11:23:09;;;;;;;8.50;3.50;;;;;25.80;98651.00;;;;111820;1242;41886;-62
2022/01/12 11:25:47;;;;;;;7.30;3.20;;;;;26.22;98651.40;;;;111824;1242;41702;-61
2022/01/12 11:28:21;;;;;;;7.20;3.10;;;;;26.62;98652.20;;;;111858;1244;41271;-66
2022/01/12 11:30:50;;;;;;;8.60;3.50;;;;;27.00;98648.20;;;;111815;1242;41878;-64
2022/01/12 11:33:22;;;;;;;9.00;4.10;;;;;27.20;98649.20;;;;111829;1244;41251;-66
2022/01/12 11:35:53;;;;;;;9.70;3.80;;;;;27.30;98648.80;;;;111761;1244;41595;-64
2022/01/12 11:38:34;;;;;;;8.60;3.50;;;;;27.10;98652.40;;;;111759;1244;41145;-67
2022/01/12 11:41:15;;;;;;;8.30;3.60;;;;;27.10;98654.60;;;;111882;1241;41134;-64
2022/01/12 11:43:53;;;;;;;9.00;3.80;;;;;27.30;98658.80;;;;111848;1241;42229;-67
2022/01/12 11:46:26;;;;;;;8.60;3.30;;;;;27.32;98655.80;;;;111561;1243;41630;-62
2022/01/12 11:48:59;;;;;;;7.80;3.30;;;;;27.46;98656.20;;;;111853;1244;41150;-71
2022/01/12 11:51:44;;;;;;;7.90;3.40;;;;;27.40;98655.60;;;;111792;1242;42394;-66
2022/01/12 11:54:18;;;;;;;8.40;3.70;;;;;27.50;98653.80;;;;111836;1242;41348;-65
2022/01/12 11:56:52;;;;;;;9.40;3.60;;;;;27.40;98653.20;;;;111872;1241;42121;-73
2022/01/12 11:59:26;;;;;;;8.90;3.60;;;;;27.30;98652.20;;;;111769;1242;42381;-72
2022/01/12 12:02:11;;;;;;;9.00;3.70;;;;;27.20;98649.40;;;;111787;1242;41136;-72
2022/01/12 12:04:55;;;;;;;10.00;3.80;;;;;27.10;98653.20;;;;111824;1242;41369;-69
2022/01/12 12:07:26;;;;;;;8.30;3.60;;;;;27.20;98655.80;;;;111835;1241;41143;-71
2022/01/12 12:09:58;;;;;;;8.70;3.60;;;;;27.00;98650.80;;;;111867;1243;41134;-75
2022/01/12 12:12:30;;;;;;;8.80;3.40;;;;;27.00;98653.00;;;;111766;1241;41817;-67
2022/01/12 12:15:01;;;;;;;7.50;3.30;;;;;27.10;98653.60;;;;111679;1244;41627;-76
2022/01/12 12:17:32;;;;;;;9.90;3.90;;;;;27.20;98650.40;;;;111760;1242;41132;-73
2022/01/12 12:20:07;;;;;;;8.40;3.70;;;;;27.40;98652.00;;;;111710;1244;41141;-75
2022/01/12 12:22:40;;;;;;;8.60;3.50;;;;;27.10;98648.00;;;;111677;1242;41368;-62
2022/01/12 12:25:11;;;;;;;9.90;3.80;;;;;27.10;98649.60;;;;111552;1244;41666;-61
2022/01/12 12:27:42;;;;;;;10.60;3.60;;;;;27.26;98646.00;;;;111834;1242;41248;-64
2022/01/12 12:30:16;;;;;;;8.30;3.70;;;;;27.30;98646.60;;;;111731;1241;41867;-71
2022/01/12 12:32:47;;;;;;;8.80;3.50;;;;;27.28;98652.20;;;;111815;1241;41236;-65
2022/01/12 12:35:19;;;;;;;8.00;3.50;;;;;27.30;98654.20;;;;111599;1241;41177;-66
2022/01/12 12:37:52;;;;;;;8.60;3.90;;;;;27.20;98650.60;;;;111642;1243;41594;-62
2022/01/12 12:40:23;;;;;;;8.90;3.70;;;;;27.30;98654.20;;;;111791;1243;41921;-74
2022/01/12 12:43:19;;;;;;;8.30;3.60;;;;;27.06;98650.00;;;;111705;1241;41252;-63
2022/01/12 12:45:56;;;;;;;8.60;3.60;;;;;26.90;98654.20;;;;111821;1241;41266;-67
2022/01/12 12:48:31;;;;;;;10.30;4.00;;;;;26.90;98657.40;;;;111819;1241;41340;-64
2022/01/12 12:51:05;;;;;;;12.60;5.40;;;;;26.82;98653.80;;;;111821;1241;41290;-69
2022/01/12 12:53:38;;;;;;;18.40;9.00;;;;;26.80;98655.20;;;;111814;1241;42762;-76
2022/01/12 12:56:16;;;;;;;11.10;4.80;;;;;26.80;98657.20;;;;111790;1241;41138;-75
2022/01/12 12:58:51;;;;;;;7.90;3.70;;;;;26.54;98655.60;;;;111223;1244;41150;-72
2022/01/12 13:01:26;;;;;;;8.60;3.60;;;;;25.44;98663.20;;;;111421;1244;41134;-62
2022/01/12 13:03:59;;;;;;;9.40;4.10;;;;;25.20;98662.40;;;;111271;1244;41275;-74
2022/01/12 13:06:36;;;;;;;14.20;6.10;;;;;25.40;98664.20;;;;111025;1245;41244;-73
2022/01/12 13:09:08;;;;;;;20.40;10.10;;;;;25.60;98665.00;;;;111508;1244;41133;-75
2022/01/12 13:11:40;;;;;;;13.60;6.60;;;;;25.50;98670.20;;;;111261;1245;41145;-74
2022/01/12 13:14:12;;;;;;;20.20;10.20;;;;;25.40;98664.40;;;;111782;1242;41026;-63
2022/01/12 13:16:52;;;;;;;20.10;9.80;;;;;25.30;98664.20;;;;111282;1244;41147;-63
2022/01/12 13:22:25;;;;;;;11.40;4.50;;;;;24.94;98674.20;;;;111153;1248;41237;-76
2022/01/12 13:24:56;;;;;;;10.90;5.20;;;;;24.48;98669.60;;;;111156;1247;41621;-75
2022/01/12 13:27:27;;;;;;;11.10;4.80;;;;;23.88;98676.60;;;;110979;1249;41238;-76
2022/01/12 13:29:56;;;;;;;9.20;3.80;;;;;23.32;98675.40;;;;110813;1251;41334;-61
2022/01/12 13:32:30;;;;;;;;;;;;;22.74;98675.40;;;;110945;1250;41825;-78
2022/01/12 13:35:06;;;;;;;9.70;3.90;;;;;22.14;98677.00;;;;110768;1250;41191;-79